Time;durP1;ratioP1;P1;durP2;ratioP2;P2;SDS_P1;SDS_P2;PMS_P1;PMS_P2;Temp;Humidity;BMP_temperature;BMP_pressure;BME280_temperature;BME280_humidity;BME280_pressure;Samples;Min_cycle;Max_cycle;Signal;HPM_P1;HPM_P2
2023/09/17 00:00:31;;;;;;;11.90;5.77;;;;;;;18.04;100.00;99755.53;5089185;28;20248;-64
2023/09/17 00:02:58;;;;;;;8.83;5.50;;;;;;;18.10;100.00;99764.50;5088994;28;20202;-64
2023/09/17 00:05:25;;;;;;;10.57;5.83;;;;;;;18.14;100.00;99752.09;5089014;28;20638;-64
2023/09/17 00:07:52;;;;;;;10.90;5.83;;;;;;;18.13;100.00;99753.06;5088878;28;20198;-64
2023/09/17 00:10:18;;;;;;;8.20;5.63;;;;;;;18.14;100.00;99754.66;5089105;28;20219;-64
2023/09/17 00:12:45;;;;;;;12.33;5.80;;;;;;;18.18;100.00;99746.50;5088518;28;20198;-64
2023/09/17 00:15:13;;;;;;;10.47;6.13;;;;;;;18.17;100.00;99744.84;5088694;28;20677;-64
2023/09/17 00:17:40;;;;;;;11.23;6.07;;;;;;;18.19;100.00;99748.13;5088839;28;20239;-64
2023/09/17 00:20:10;;;;;;;12.13;6.50;;;;;;;18.23;100.00;99754.63;5089228;28;20213;-63
2023/09/17 00:22:37;;;;;;;13.60;6.93;;;;;;;18.21;100.00;99746.19;5088667;28;20230;-64
2023/09/17 00:25:05;;;;;;;13.57;7.03;;;;;;;18.24;100.00;99743.31;5088517;28;20601;-64
2023/09/17 00:27:32;;;;;;;13.03;7.27;;;;;;;18.23;100.00;99749.44;5088549;28;20234;-64
2023/09/17 00:29:59;;;;;;;13.10;7.37;;;;;;;18.29;100.00;99746.28;5088541;28;20225;-64
2023/09/17 00:32:27;;;;;;;13.93;8.10;;;;;;;18.31;100.00;99741.78;5088808;28;20291;-64
2023/09/17 00:34:54;;;;;;;15.77;8.47;;;;;;;18.24;100.00;99748.50;5088264;28;20202;-63
2023/09/17 00:37:21;;;;;;;20.47;8.67;;;;;;;18.28;100.00;99747.25;5088268;28;20661;-64
2023/09/17 00:39:47;;;;;;;17.90;8.97;;;;;;;18.39;100.00;99742.84;5088518;28;20225;-64
2023/09/17 00:42:14;;;;;;;17.77;8.53;;;;;;;18.39;100.00;99745.44;5088302;28;20204;-63
2023/09/17 00:44:41;;;;;;;17.40;8.83;;;;;;;18.39;100.00;99748.03;5102433;28;20198;-63
2023/09/17 00:47:08;;;;;;;16.53;8.57;;;;;;;18.45;100.00;99747.44;5108749;28;20201;-64
2023/09/17 00:49:38;;;;;;;14.30;8.47;;;;;;;18.53;100.00;99750.13;5108609;28;20203;-64
2023/09/17 00:52:19;;;;;;;16.40;9.43;;;;;;;18.48;100.00;99752.31;5108851;28;20200;-65
2023/09/17 00:54:48;;;;;;;18.30;9.23;;;;;;;18.49;100.00;99748.75;5107728;28;20197;-64
2023/09/17 00:57:16;;;;;;;21.23;9.67;;;;;;;18.53;100.00;99750.94;5108259;28;20232;-64
2023/09/17 00:59:43;;;;;;;15.93;9.10;;;;;;;18.48;100.00;99752.31;5108273;28;20741;-63
2023/09/17 01:02:10;;;;;;;19.97;9.57;;;;;;;18.50;100.00;99751.22;5108386;28;20196;-64
2023/09/17 01:04:41;;;;;;;20.53;9.23;;;;;;;18.48;100.00;99747.97;5108748;28;20208;-64
2023/09/17 01:07:09;;;;;;;14.97;9.23;;;;;;;18.47;100.00;99745.50;5108268;28;20208;-64
2023/09/17 01:09:37;;;;;;;18.97;9.67;;;;;;;18.45;100.00;99752.63;5108431;28;20295;-64
2023/09/17 01:12:05;;;;;;;18.70;10.27;;;;;;;18.42;100.00;99747.72;5108114;28;20694;-63
2023/09/17 01:14:34;;;;;;;17.37;9.37;;;;;;;18.48;100.00;99737.59;5108019;28;20775;-63
2023/09/17 01:17:03;;;;;;;20.57;10.20;;;;;;;18.50;100.00;99745.22;5108077;28;20200;-63
2023/09/17 01:19:32;;;;;;;22.63;10.70;;;;;;;18.46;100.00;99738.69;5108384;28;20204;-64
2023/09/17 01:22:06;;;;;;;18.17;10.00;;;;;;;18.41;100.00;99739.13;5091685;28;20207;-64
2023/09/17 01:24:40;;;;;;;19.70;10.33;;;;;;;18.40;100.00;99747.06;5088120;28;20594;-64
2023/09/17 01:27:10;;;;;;;19.63;9.90;;;;;;;18.48;100.00;99741.97;5088092;28;20228;-64
2023/09/17 01:29:39;;;;;;;21.10;10.47;;;;;;;18.37;100.00;99734.41;5088015;28;20215;-64
2023/09/17 01:32:06;;;;;;;19.03;10.27;;;;;;;18.45;100.00;99732.72;5087799;28;20211;-64
2023/09/17 01:34:37;;;;;;;18.00;9.57;;;;;;;18.41;100.00;99725.38;5087661;28;20716;-64
2023/09/17 01:37:09;;;;;;;15.97;9.77;;;;;;;18.38;100.00;99725.66;5087996;28;20196;-64
2023/09/17 01:39:46;;;;;;;21.33;10.17;;;;;;;18.33;100.00;99719.16;5091120;28;20589;-64
2023/09/17 01:42:16;;;;;;;17.10;9.43;;;;;;;18.33;100.00;99719.16;5087796;28;20633;-64
2023/09/17 01:44:45;;;;;;;15.83;9.13;;;;;;;18.21;100.00;99717.72;5087648;28;20461;-64
2023/09/17 01:47:12;;;;;;;17.37;9.40;;;;;;;18.24;100.00;99714.84;5087625;28;20292;-64
2023/09/17 01:49:40;;;;;;;18.07;9.03;;;;;;;18.19;100.00;99717.06;5087791;28;20207;-64
2023/09/17 01:52:07;;;;;;;17.50;9.73;;;;;;;18.22;100.00;99706.41;5087958;28;20204;-64
2023/09/17 01:54:35;;;;;;;20.17;9.27;;;;;;;18.20;100.00;99715.28;5096917;28;20208;-63
2023/09/17 01:57:02;;;;;;;15.97;9.00;;;;;;;18.22;100.00;99711.59;5107741;28;20811;-64
2023/09/17 01:59:30;;;;;;;17.20;9.13;;;;;;;18.20;100.00;99703.13;5107736;28;20702;-63
2023/09/17 02:01:57;;;;;;;15.17;8.63;;;;;;;18.16;100.00;99711.34;5107809;28;20207;-64
2023/09/17 02:04:24;;;;;;;14.60;9.27;;;;;;;18.17;100.00;99708.59;5106242;28;20609;-64
2023/09/17 02:06:53;;;;;;;14.63;8.10;;;;;;;18.15;100.00;99707.97;5091690;28;20208;-64
2023/09/17 02:09:20;;;;;;;18.43;9.43;;;;;;;18.14;100.00;99703.72;5091200;28;20217;-64
2023/09/17 02:11:47;;;;;;;17.50;10.23;;;;;;;18.12;100.00;99705.63;5091017;28;20634;-64
2023/09/17 02:14:14;;;;;;;18.37;9.47;;;;;;;18.11;100.00;99709.19;5091172;28;20204;-64
2023/09/17 02:16:43;;;;;;;19.63;9.60;;;;;;;18.14;100.00;99714.06;5091498;28;20204;-64
2023/09/17 02:19:10;;;;;;;16.23;8.70;;;;;;;18.21;100.00;99709.13;5091173;28;20237;-64
2023/09/17 02:21:36;;;;;;;14.93;9.00;;;;;;;18.19;100.00;99714.47;5101916;28;20234;-64
2023/09/17 02:24:04;;;;;;;17.30;9.07;;;;;;;18.16;100.00;99717.34;5111481;28;20667;-64
2023/09/17 02:26:30;;;;;;;16.07;9.27;;;;;;;18.12;100.00;99720.34;5111463;28;20205;-63
2023/09/17 02:28:57;;;;;;;21.33;9.47;;;;;;;18.06;100.00;99721.72;5111219;28;20204;-64
2023/09/17 02:31:24;;;;;;;21.13;9.03;;;;;;;18.09;100.00;99721.44;5111305;28;20219;-64
2023/09/17 02:33:52;;;;;;;18.93;9.83;;;;;;;18.02;100.00;99725.56;5111270;28;20203;-63
2023/09/17 02:36:19;;;;;;;17.50;9.20;;;;;;;17.99;100.00;99726.69;5108058;28;20582;-64
2023/09/17 02:38:46;;;;;;;18.30;9.47;;;;;;;18.06;100.00;99732.94;5090489;28;20226;-64
2023/09/17 02:41:13;;;;;;;18.97;9.83;;;;;;;18.03;100.00;99732.38;5090546;28;20201;-63
2023/09/17 02:43:40;;;;;;;17.87;10.00;;;;;;;18.06;100.00;99727.75;5090584;28;20195;-63
2023/09/17 02:46:07;;;;;;;22.50;9.60;;;;;;;18.07;100.00;99725.97;5090544;28;20575;-64
2023/09/17 02:48:34;;;;;;;19.77;9.87;;;;;;;18.07;100.00;99729.38;5090713;28;20198;-64
2023/09/17 02:51:03;;;;;;;19.30;10.23;;;;;;;18.06;100.00;99726.91;5090336;28;20287;-64
2023/09/17 02:53:29;;;;;;;17.47;10.30;;;;;;;18.08;100.00;99719.81;5103895;28;20207;-63
2023/09/17 02:55:58;;;;;;;18.43;10.10;;;;;;;18.13;100.00;99722.81;5111003;28;20204;-63
2023/09/17 02:58:24;;;;;;;16.60;9.40;;;;;;;18.09;100.00;99716.28;5110573;28;20719;-63
2023/09/17 03:00:51;;;;;;;18.03;10.23;;;;;;;18.13;100.00;99712.47;5111041;28;20204;-64
2023/09/17 03:03:18;;;;;;;22.70;9.63;;;;;;;18.15;100.00;99715.72;5110849;28;20207;-64
2023/09/17 03:05:46;;;;;;;20.07;10.10;;;;;;;18.14;100.00;99718.44;5110846;28;20203;-63
2023/09/17 03:08:15;;;;;;;16.37;9.77;;;;;;;18.10;100.00;99717.91;5104589;28;20268;-64
2023/09/17 03:10:42;;;;;;;19.13;9.93;;;;;;;18.09;100.00;99711.94;5090430;28;20217;-63
2023/09/17 03:13:09;;;;;;;20.97;10.77;;;;;;;18.05;100.00;99720.13;5089984;28;20199;-64
2023/09/17 03:15:36;;;;;;;15.57;8.83;;;;;;;18.11;100.00;99714.38;5090128;28;20204;-64
2023/09/17 03:18:04;;;;;;;21.33;9.87;;;;;;;18.06;100.00;99706.22;5089475;28;20767;-63
2023/09/17 03:20:33;;;;;;;18.37;9.53;;;;;;;18.07;100.00;99705.28;5089928;28;20586;-64
2023/09/17 03:23:02;;;;;;;17.87;9.20;;;;;;;18.02;100.00;99704.88;5090435;28;20201;-64
2023/09/17 03:25:31;;;;;;;18.13;10.23;;;;;;;18.04;100.00;99708.16;5106424;28;20200;-64
2023/09/17 03:27:59;;;;;;;19.67;9.23;;;;;;;17.99;100.00;99703.38;5110251;28;20200;-64
2023/09/17 03:30:26;;;;;;;15.80;8.70;;;;;;;17.93;100.00;99705.75;5110352;28;20465;-63
2023/09/17 03:32:53;;;;;;;15.53;8.90;;;;;;;17.95;100.00;99706.38;5110097;28;20757;-63
2023/09/17 03:35:20;;;;;;;18.53;9.60;;;;;;;17.90;100.00;99703.44;5109994;28;20195;-63
2023/09/17 03:37:47;;;;;;;16.70;8.93;;;;;;;17.85;100.00;99703.84;5109639;28;20797;-63
2023/09/17 03:40:15;;;;;;;18.60;9.87;;;;;;;17.84;100.00;99697.06;5110202;27;20200;-63
2023/09/17 03:42:44;;;;;;;16.17;9.03;;;;;;;17.74;100.00;99697.03;5109844;28;20206;-63
2023/09/17 03:45:12;;;;;;;16.93;9.73;;;;;;;17.73;100.00;99697.22;5109973;28;20553;-64
2023/09/17 03:47:40;;;;;;;19.60;9.67;;;;;;;17.68;100.00;99696.81;5110054;28;20199;-63
2023/09/17 03:50:08;;;;;;;16.07;8.70;;;;;;;17.65;100.00;99703.06;5109653;28;20203;-63
2023/09/17 03:52:37;;;;;;;21.03;9.67;;;;;;;17.59;100.00;99703.63;5109856;28;20645;-63
2023/09/17 03:55:07;;;;;;;18.43;9.17;;;;;;;17.60;100.00;99710.47;5110032;28;20222;-63
2023/09/17 03:57:35;;;;;;;17.87;9.10;;;;;;;17.57;100.00;99711.56;5109806;28;20198;-63
2023/09/17 04:00:07;;;;;;;16.43;9.00;;;;;;;17.57;100.00;99716.72;5109183;28;20227;-64
2023/09/17 04:02:34;;;;;;;22.47;10.07;;;;;;;17.51;100.00;99721.63;5109633;28;20560;-63
2023/09/17 04:05:01;;;;;;;16.83;8.80;;;;;;;17.51;100.00;99716.44;5109275;28;20211;-63
2023/09/17 04:07:28;;;;;;;15.80;8.67;;;;;;;17.54;100.00;99726.50;5109311;28;20591;-63
2023/09/17 04:09:54;;;;;;;17.53;9.03;;;;;;;17.53;100.00;99724.88;5109270;28;20216;-63
2023/09/17 04:12:21;;;;;;;18.13;9.63;;;;;;;17.52;100.00;99718.09;5109010;28;20201;-63
2023/09/17 04:14:48;;;;;;;22.60;9.67;;;;;;;17.47;100.00;99718.50;5109141;28;20230;-63
2023/09/17 04:17:16;;;;;;;18.43;9.63;;;;;;;17.53;100.00;99722.31;5109272;28;20205;-63
2023/09/17 04:19:43;;;;;;;18.23;9.80;;;;;;;17.54;100.00;99721.34;5109187;28;20230;-63
2023/09/17 04:22:10;;;;;;;19.13;9.07;;;;;;;17.50;100.00;99723.41;5109129;28;20214;-63
2023/09/17 04:24:38;;;;;;;18.03;9.17;;;;;;;17.53;100.00;99719.72;5109273;28;20574;-65
2023/09/17 04:27:05;;;;;;;16.07;8.03;;;;;;;17.56;100.00;99722.03;5108875;28;20229;-63
2023/09/17 04:29:32;;;;;;;15.63;9.30;;;;;;;17.57;100.00;99721.06;5107989;28;20206;-64
2023/09/17 04:31:59;;;;;;;15.50;8.87;;;;;;;17.56;100.00;99717.66;5098361;28;20774;-63
2023/09/17 04:34:27;;;;;;;20.43;9.57;;;;;;;17.60;100.00;99729.38;5088660;28;20200;-64
2023/09/17 04:36:54;;;;;;;16.17;9.27;;;;;;;17.50;100.00;99731.16;5088512;28;21105;-64
2023/09/17 04:39:20;;;;;;;17.93;9.80;;;;;;;17.49;100.00;99729.53;5088611;28;20235;-64
2023/09/17 04:41:47;;;;;;;16.37;8.53;;;;;;;17.47;100.00;99739.19;5088292;28;20450;-64
2023/09/17 04:44:14;;;;;;;17.90;9.40;;;;;;;17.54;100.00;99732.53;5088252;28;20203;-64
2023/09/17 04:46:42;;;;;;;16.53;9.30;;;;;;;17.50;100.00;99741.50;5089279;28;20200;-64
2023/09/17 04:49:09;;;;;;;18.93;8.53;;;;;;;17.59;100.00;99747.59;5108659;28;20680;-64
2023/09/17 04:51:38;;;;;;;12.73;7.97;;;;;;;17.63;100.00;99736.03;5108802;28;20197;-64
2023/09/17 04:54:05;;;;;;;15.63;8.63;;;;;;;17.60;100.00;99741.50;5108766;28;20460;-63
2023/09/17 04:56:32;;;;;;;18.83;9.50;;;;;;;17.64;100.00;99742.84;5108665;28;20202;-64
2023/09/17 04:59:00;;;;;;;15.30;8.47;;;;;;;17.61;100.00;99743.91;5108124;28;20245;-64
2023/09/17 05:01:27;;;;;;;16.13;8.13;;;;;;;17.62;100.00;99749.91;5108575;28;20203;-63
2023/09/17 05:03:54;;;;;;;15.50;8.37;;;;;;;17.64;100.00;99742.84;5094781;28;20631;-63
2023/09/17 05:06:21;;;;;;;19.87;9.07;;;;;;;17.59;100.00;99747.59;5087964;28;20663;-64
2023/09/17 05:08:49;;;;;;;14.70;8.77;;;;;;;17.56;100.00;99737.53;5087942;28;20683;-64
2023/09/17 05:11:16;;;;;;;17.73;9.00;;;;;;;17.56;100.00;99740.94;5088161;28;20206;-64
2023/09/17 05:13:43;;;;;;;14.37;8.30;;;;;;;17.59;100.00;99745.00;5088080;28;20848;-64
2023/09/17 05:16:10;;;;;;;14.40;8.50;;;;;;;17.53;100.00;99740.41;5088133;28;20593;-64
2023/09/17 05:18:37;;;;;;;14.73;8.43;;;;;;;17.58;100.00;99744.19;5091600;28;20204;-64
2023/09/17 05:21:05;;;;;;;16.53;8.63;;;;;;;17.65;100.00;99742.66;5108234;28;20213;-64
2023/09/17 05:23:32;;;;;;;16.30;8.37;;;;;;;17.67;100.00;99752.91;5108099;28;20199;-64
2023/09/17 05:26:00;;;;;;;15.10;7.90;;;;;;;17.69;100.00;99751.00;5108188;28;20210;-64
2023/09/17 05:28:27;;;;;;;16.50;8.50;;;;;;;17.77;100.00;99750.28;5108228;28;20202;-64
2023/09/17 05:30:55;;;;;;;16.10;8.13;;;;;;;17.75;100.00;99755.59;5108033;28;20225;-64
2023/09/17 05:33:22;;;;;;;16.77;8.93;;;;;;;17.78;100.00;99750.19;5108680;28;20198;-63
2023/09/17 05:35:49;;;;;;;16.70;8.27;;;;;;;17.74;100.00;99759.13;5108127;28;20679;-64
2023/09/17 05:38:16;;;;;;;17.33;8.53;;;;;;;17.77;100.00;99758.03;5108250;28;20203;-64
2023/09/17 05:40:43;;;;;;;16.67;9.03;;;;;;;17.76;100.00;99762.38;5109315;28;20236;-64
2023/09/17 05:43:11;;;;;;;17.53;9.40;;;;;;;17.77;100.00;99756.28;5112448;28;20685;-64
2023/09/17 05:45:39;;;;;;;16.00;8.40;;;;;;;17.85;100.00;99756.41;5112034;28;20258;-64
2023/09/17 05:48:06;;;;;;;19.47;9.17;;;;;;;17.82;100.00;99758.47;5112498;28;20229;-64
2023/09/17 05:50:33;;;;;;;17.97;9.70;;;;;;;17.81;100.00;99759.44;5112040;28;20375;-64
2023/09/17 05:52:59;;;;;;;15.40;8.30;;;;;;;17.86;100.00;99752.88;5111786;28;20219;-65
2023/09/17 05:55:28;;;;;;;15.97;8.93;;;;;;;17.89;100.00;99756.97;5111904;28;20618;-64
2023/09/17 05:57:55;;;;;;;16.33;9.23;;;;;;;17.86;100.00;99763.22;5112348;28;20537;-64
2023/09/17 06:00:23;;;;;;;17.97;8.53;;;;;;;17.91;100.00;99756.81;5111723;28;20236;-64
2023/09/17 06:02:50;;;;;;;17.53;8.13;;;;;;;17.84;100.00;99765.13;5111789;28;20196;-64
2023/09/17 06:05:17;;;;;;;15.30;9.07;;;;;;;17.86;100.00;99763.22;5111671;28;20214;-64
2023/09/17 06:07:44;;;;;;;15.67;9.07;;;;;;;17.92;100.00;99761.00;5111784;28;20412;-65
2023/09/17 06:10:11;;;;;;;14.17;8.27;;;;;;;18.03;100.00;99755.66;5111925;28;20225;-64
2023/09/17 06:12:37;;;;;;;17.77;9.00;;;;;;;18.07;100.00;99750.06;5111733;28;20207;-64
2023/09/17 06:15:06;;;;;;;16.63;8.60;;;;;;;18.13;100.00;99753.06;5111394;28;20364;-64
2023/09/17 06:17:34;;;;;;;17.07;8.77;;;;;;;18.26;100.00;99751.75;5111680;28;20205;-64
2023/09/17 06:20:01;;;;;;;15.57;8.37;;;;;;;18.29;100.00;99754.03;5111734;28;20236;-64
2023/09/17 06:22:28;;;;;;;20.60;9.53;;;;;;;18.33;100.00;99755.41;5111363;28;20202;-64
2023/09/17 06:24:55;;;;;;;19.27;9.33;;;;;;;18.46;100.00;99760.22;5111520;28;20211;-64
2023/09/17 06:27:21;;;;;;;18.17;9.03;;;;;;;18.51;100.00;99762.38;5111313;28;20202;-64
2023/09/17 06:29:48;;;;;;;15.73;9.23;;;;;;;18.59;100.00;99765.06;5111361;28;20255;-64
2023/09/17 06:32:15;;;;;;;19.43;10.00;;;;;;;18.72;100.00;99770.69;5111267;28;20199;-64
2023/09/17 06:34:43;;;;;;;17.73;9.67;;;;;;;18.80;100.00;99770.00;5111401;28;20194;-64
2023/09/17 06:37:11;;;;;;;17.27;9.43;;;;;;;18.84;100.00;99773.91;5111254;28;20201;-64
2023/09/17 06:39:37;;;;;;;20.67;9.27;;;;;;;18.95;100.00;99775.50;5110364;28;20620;-64
2023/09/17 06:42:05;;;;;;;18.60;9.30;;;;;;;19.09;100.00;99782.75;5111030;28;20208;-64
2023/09/17 06:44:32;;;;;;;15.33;8.93;;;;;;;19.22;100.00;99783.19;5111192;28;20211;-64
2023/09/17 06:46:59;;;;;;;15.90;8.53;;;;;;;19.25;100.00;99779.47;5110850;28;20685;-64
2023/09/17 06:49:25;;;;;;;19.10;9.10;;;;;;;19.47;100.00;99791.16;5111098;28;20206;-64
2023/09/17 06:51:54;;;;;;;16.40;9.10;;;;;;;19.61;100.00;99788.03;5110045;28;20202;-64
2023/09/17 06:54:21;;;;;;;13.83;7.80;;;;;;;19.83;100.00;99791.09;5110241;28;20305;-64
2023/09/17 06:56:48;;;;;;;16.30;9.10;;;;;;;19.95;100.00;99789.88;5110644;28;20678;-64
2023/09/17 06:59:14;;;;;;;14.67;8.60;;;;;;;19.94;100.00;99784.84;5110592;28;20232;-64
2023/09/17 07:01:41;;;;;;;13.47;8.23;;;;;;;19.97;100.00;99792.31;5110621;28;20225;-65
2023/09/17 07:04:08;;;;;;;15.90;8.10;;;;;;;19.99;100.00;99796.41;5109855;28;20534;-64
2023/09/17 07:06:35;;;;;;;13.97;8.17;;;;;;;20.08;100.00;99795.47;5109576;28;20204;-64
2023/09/17 07:09:03;;;;;;;11.90;7.13;;;;;;;20.33;100.00;99793.81;5110057;28;20736;-64
2023/09/17 07:11:30;;;;;;;17.00;7.57;;;;;;;20.78;100.00;99797.03;5110657;28;20575;-63
2023/09/17 07:13:57;;;;;;;14.43;7.60;;;;;;;21.20;100.00;99793.50;5110216;28;20227;-59
2023/09/17 07:16:24;;;;;;;12.23;7.70;;;;;;;21.56;100.00;99794.03;5110416;28;20611;-61
2023/09/17 07:18:52;;;;;;;15.10;7.37;;;;;;;21.82;100.00;99791.22;5106817;28;20200;-66
2023/09/17 07:21:19;;;;;;;12.63;7.03;;;;;;;22.07;100.00;99798.97;5107921;28;20228;-62
2023/09/17 07:23:50;;;;;;;14.93;6.53;;;;;;;22.24;100.00;99803.16;5109871;28;20717;-60
2023/09/17 07:26:20;;;;;;;9.88;6.05;;;;;;;22.43;100.00;99794.16;5109823;28;20564;-62
2023/09/17 07:28:46;;;;;;;10.95;6.32;;;;;;;22.56;100.00;99799.59;5109912;28;20233;-62
2023/09/17 07:31:14;;;;;;;8.40;5.93;;;;;;;22.73;100.00;99792.50;5109958;28;20209;-62
2023/09/17 07:33:42;;;;;;;11.15;5.95;;;;;;;22.74;100.00;99801.94;5109611;28;20213;-63
2023/09/17 07:36:09;;;;;;;10.50;5.55;;;;;;;22.68;100.00;99802.63;5105726;28;20197;-68
2023/09/17 07:38:36;;;;;;;8.45;6.13;;;;;;;22.63;100.00;99798.91;5089113;28;20691;-67
2023/09/17 07:41:03;;;;;;;10.90;4.97;;;;;;;22.73;100.00;99800.34;5108885;28;20229;-64
2023/09/17 07:43:31;;;;;;;9.07;5.75;;;;;;;22.92;100.00;99808.69;5109593;28;20282;-61
2023/09/17 07:45:58;;;;;;;7.57;5.43;;;;;;;23.22;100.00;99805.25;5108355;28;20221;-62
2023/09/17 07:48:25;;;;;;;10.25;5.78;;;;;;;23.40;100.00;99815.38;5107751;28;20193;-59
2023/09/17 07:50:58;;;;;;;9.35;5.82;;;;;;;23.65;100.00;99813.38;5109724;28;20224;-63
2023/09/17 07:53:25;;;;;;;11.20;5.45;;;;;;;23.41;100.00;99818.78;5108256;28;20220;-62
2023/09/17 07:55:52;;;;;;;11.90;6.70;;;;;;;23.33;100.00;99816.25;5109267;28;20205;-62
2023/09/17 07:58:19;;;;;;;11.40;6.55;;;;;;;23.53;100.00;99827.81;5109339;28;20201;-62
2023/09/17 08:00:48;;;;;;;11.70;6.55;;;;;;;23.84;100.00;99830.34;5109042;28;20237;-63
2023/09/17 08:03:16;;;;;;;8.80;5.70;;;;;;;23.76;100.00;99822.56;5109047;28;20198;-63
2023/09/17 08:05:45;;;;;;;9.80;5.95;;;;;;;23.93;100.00;99833.69;5109413;28;20212;-64
2023/09/17 08:08:12;;;;;;;11.80;6.38;;;;;;;23.79;100.00;99827.44;5109360;28;20681;-64
2023/09/17 08:10:39;;;;;;;11.43;6.80;;;;;;;24.21;100.00;99822.63;5109030;28;20408;-64
2023/09/17 08:13:06;;;;;;;8.43;5.93;;;;;;;24.39;100.00;99833.50;5109029;28;20879;-64
2023/09/17 08:15:33;;;;;;;9.65;6.25;;;;;;;24.42;100.00;99827.09;5108814;28;20197;-63
2023/09/17 08:18:01;;;;;;;7.68;5.35;;;;;;;24.39;100.00;99828.25;5108827;28;20748;-63
2023/09/17 08:20:28;;;;;;;8.40;5.22;;;;;;;24.41;100.00;99826.28;5108481;28;20312;-62
2023/09/17 08:22:56;;;;;;;7.65;5.20;;;;;;;24.74;100.00;99820.66;5108802;28;20205;-62
2023/09/17 08:25:23;;;;;;;8.25;4.40;;;;;;;24.90;100.00;99828.28;5109556;28;20201;-61
2023/09/17 08:27:53;;;;;;;7.88;5.00;;;;;;;25.15;100.00;99831.34;5108885;28;20213;-60
2023/09/17 08:30:20;;;;;;;9.15;4.88;;;;;;;25.27;97.95;99829.84;5109080;28;20202;-61
2023/09/17 08:32:47;;;;;;;7.82;4.85;;;;;;;25.18;95.03;99828.38;5108886;28;20392;-59
2023/09/17 08:35:15;;;;;;;8.05;4.78;;;;;;;25.13;100.00;99824.66;5108861;28;20585;-61
2023/09/17 08:37:42;;;;;;;8.23;4.97;;;;;;;25.47;98.44;99822.16;5108643;28;20240;-62
2023/09/17 08:40:14;;;;;;;9.02;5.50;;;;;;;25.47;97.69;99823.97;5108842;28;20366;-61
2023/09/17 08:42:41;;;;;;;7.35;4.85;;;;;;;25.47;95.80;99822.16;5107184;28;20221;-61
2023/09/17 08:45:10;;;;;;;8.65;4.85;;;;;;;25.39;93.21;99827.53;5106907;28;20217;-61
2023/09/17 08:47:37;;;;;;;6.80;4.53;;;;;;;25.64;92.35;99827.13;5106736;28;20285;-63
2023/09/17 08:50:04;;;;;;;7.00;4.38;;;;;;;25.73;92.91;99818.94;5108732;28;20232;-61
2023/09/17 08:52:34;;;;;;;8.80;4.63;;;;;;;25.83;93.34;99829.13;5106778;28;20585;-63
2023/09/17 08:55:08;;;;;;;6.55;4.57;;;;;;;26.05;92.89;99821.16;5107728;28;20216;-62
2023/09/17 08:57:37;;;;;;;5.63;4.15;;;;;;;26.01;92.98;99822.56;5106222;28;20204;-60
2023/09/17 09:00:08;;;;;;;8.30;4.10;;;;;;;26.03;90.40;99820.53;5105101;28;20246;-62
2023/09/17 09:02:42;;;;;;;9.35;4.93;;;;;;;25.94;85.13;99823.31;5108631;28;20262;-63
2023/09/17 09:05:10;;;;;;;10.23;5.45;;;;;;;25.85;86.86;99819.22;5108137;28;20237;-62
2023/09/17 09:07:40;;;;;;;6.00;4.32;;;;;;;25.79;89.43;99819.97;5107959;28;20251;-63
2023/09/17 09:10:08;;;;;;;7.38;4.25;;;;;;;26.00;89.84;99818.31;5108291;28;20202;-64
2023/09/17 09:12:36;;;;;;;8.55;4.32;;;;;;;26.18;87.64;99818.63;5108125;28;20197;-63
2023/09/17 09:15:05;;;;;;;7.07;4.60;;;;;;;26.26;89.73;99815.81;5106186;28;20229;-64
2023/09/17 09:17:32;;;;;;;4.57;3.72;;;;;;;26.45;84.74;99823.97;5108006;28;20202;-61
2023/09/17 09:19:59;;;;;;;6.18;4.00;;;;;;;26.62;85.75;99815.59;5107939;28;20229;-61
2023/09/17 09:22:26;;;;;;;5.47;3.95;;;;;;;26.97;86.95;99817.28;5108046;28;20201;-62
2023/09/17 09:24:54;;;;;;;4.43;3.63;;;;;;;27.21;85.36;99819.34;5108156;28;20233;-63
2023/09/17 09:27:21;;;;;;;5.30;3.72;;;;;;;27.42;82.04;99820.97;5108108;28;20196;-62
2023/09/17 09:29:48;;;;;;;4.82;3.50;;;;;;;27.55;80.04;99820.16;5108085;28;20236;-61
2023/09/17 09:32:15;;;;;;;6.80;3.90;;;;;;;27.66;76.98;99821.34;5108209;28;20201;-62
2023/09/17 09:34:43;;;;;;;8.02;4.10;;;;;;;27.67;78.69;99818.53;5107154;28;20201;-63
2023/09/17 09:37:10;;;;;;;8.13;4.18;;;;;;;27.84;79.49;99810.22;5102297;28;20205;-60
2023/09/17 09:39:38;;;;;;;5.95;4.07;;;;;;;27.91;80.53;99819.72;5107291;28;20193;-60
2023/09/17 09:42:07;;;;;;;4.88;3.45;;;;;;;28.11;78.25;99813.59;5107700;28;20247;-61
2023/09/17 09:44:35;;;;;;;5.30;4.00;;;;;;;27.79;77.52;99815.31;5107439;28;20212;-61
2023/09/17 09:47:03;;;;;;;5.65;3.92;;;;;;;28.09;80.28;99805.13;5107856;28;20232;-61
2023/09/17 09:49:40;;;;;;;5.78;4.20;;;;;;;28.26;79.02;99794.94;5107939;28;20233;-60
2023/09/17 09:52:07;;;;;;;6.78;3.78;;;;;;;28.33;76.31;99806.22;5106356;28;20701;-61
2023/09/17 09:54:34;;;;;;;7.20;4.00;;;;;;;28.30;73.89;99809.28;5107044;28;20209;-62
2023/09/17 09:57:04;;;;;;;6.28;3.88;;;;;;;28.54;76.13;99795.44;5106446;28;20540;-63
2023/09/17 09:59:33;;;;;;;5.28;3.97;;;;;;;28.63;75.30;99801.28;5105946;28;20206;-62
2023/09/17 10:02:02;;;;;;;6.68;4.18;;;;;;;28.88;77.15;99788.94;5105691;28;20722;-63
2023/09/17 10:04:29;;;;;;;6.47;3.70;;;;;;;28.51;71.06;99803.75;5105585;28;20196;-64
2023/09/17 10:06:57;;;;;;;4.70;4.10;;;;;;;28.13;75.06;99798.41;5106405;28;20587;-63
2023/09/17 10:09:25;;;;;;;5.57;3.97;;;;;;;28.13;75.17;99801.88;5105409;28;20533;-64
2023/09/17 10:11:53;;;;;;;6.47;4.28;;;;;;;28.24;76.06;99786.44;5105669;28;20198;-62
2023/09/17 10:14:21;;;;;;;5.93;4.18;;;;;;;28.38;75.75;99793.25;5101641;28;20456;-62
2023/09/17 10:16:50;;;;;;;7.75;4.63;;;;;;;28.56;70.28;99795.22;5106214;28;20690;-63
2023/09/17 10:19:20;;;;;;;6.88;4.15;;;;;;;28.52;71.67;99800.09;5104870;28;20237;-63
2023/09/17 10:21:48;;;;;;;7.10;4.80;;;;;;;28.64;77.18;99790.50;5105468;28;20261;-63
2023/09/17 10:24:16;;;;;;;7.20;4.55;;;;;;;28.39;75.24;99790.44;5105655;28;20237;-63
2023/09/17 10:26:44;;;;;;;5.40;4.25;;;;;;;28.31;73.77;99795.13;5106576;28;20240;-63
2023/09/17 10:29:12;;;;;;;6.82;4.70;;;;;;;28.32;74.25;99799.34;5110905;28;20282;-63
2023/09/17 10:31:41;;;;;;;5.80;4.20;;;;;;;28.65;79.31;99788.69;5110529;28;20281;-63
2023/09/17 10:34:10;;;;;;;6.68;4.57;;;;;;;28.64;73.21;99787.88;5110622;28;20198;-63
2023/09/17 10:36:39;;;;;;;6.05;4.30;;;;;;;28.76;73.32;99790.66;5110637;28;20200;-63
2023/09/17 10:39:09;;;;;;;7.03;4.57;;;;;;;28.74;75.28;99791.88;5110681;28;20754;-63
2023/09/17 10:41:38;;;;;;;7.00;4.57;;;;;;;28.71;73.78;99787.03;5109870;28;20312;-63
2023/09/17 10:44:06;;;;;;;6.65;4.60;;;;;;;28.56;69.90;99790.75;5110048;28;20201;-63
2023/09/17 10:46:33;;;;;;;7.47;4.18;;;;;;;28.73;74.88;99782.38;5109358;28;20197;-63
2023/09/17 10:49:02;;;;;;;8.32;4.70;;;;;;;28.98;76.37;99772.69;5107777;28;20205;-64
2023/09/17 10:51:31;;;;;;;6.18;4.55;;;;;;;28.99;66.74;99787.44;5105377;28;20718;-64
2023/09/17 10:53:58;;;;;;;6.70;4.82;;;;;;;28.99;73.04;99784.81;5105313;28;20589;-63
2023/09/17 10:56:26;;;;;;;6.65;4.68;;;;;;;28.75;72.41;99772.44;5107761;28;20194;-64
2023/09/17 10:58:53;;;;;;;7.35;4.32;;;;;;;28.34;71.47;99779.72;5108752;28;20204;-63
2023/09/17 11:01:24;;;;;;;9.27;4.60;;;;;;;28.28;71.41;99762.16;5108367;28;20237;-63
2023/09/17 11:03:58;;;;;;;5.88;4.25;;;;;;;28.37;71.39;99771.41;5108587;28;20698;-64
2023/09/17 11:06:26;;;;;;;7.32;4.85;;;;;;;28.38;74.49;99759.88;5108619;28;20292;-64
2023/09/17 11:08:55;;;;;;;6.47;4.82;;;;;;;28.54;72.19;99755.97;5108347;28;20200;-64
2023/09/17 11:11:24;;;;;;;7.47;4.57;;;;;;;28.29;74.34;99762.97;5108790;28;20226;-62
2023/09/17 11:13:53;;;;;;;6.35;4.80;;;;;;;28.10;72.73;99754.97;5110263;28;20267;-60
2023/09/17 11:16:21;;;;;;;6.03;4.50;;;;;;;28.23;74.48;99754.09;5109997;28;20617;-61
2023/09/17 11:19:06;;;;;;;7.43;4.90;;;;;;;28.25;73.88;99756.53;5110152;28;20201;-63
2023/09/17 11:21:35;;;;;;;6.30;4.60;;;;;;;28.21;74.17;99746.41;5110298;28;20244;-63
2023/09/17 11:24:10;;;;;;;6.38;4.45;;;;;;;28.18;73.36;99754.69;5110112;28;20283;-64